createdAt,value
2023-03-26T00:00:19.556Z,99966.98
2023-03-26T00:02:50.187Z,99968.50
2023-03-26T00:05:41.593Z,99971.17
2023-03-26T00:08:22.137Z,99970.65
2023-03-26T00:10:52.708Z,99972.42
2023-03-26T00:13:44.112Z,99968.05
2023-03-26T00:16:20.791Z,99969.08
2023-03-26T00:19:04.080Z,99969.44
2023-03-26T00:21:34.550Z,99968.78
2023-03-26T00:24:16.189Z,99973.21
2023-03-26T00:26:53.354Z,99967.23
2023-03-26T00:29:24.966Z,99966.11
2023-03-26T00:31:58.484Z,99961.34
2023-03-26T00:34:36.012Z,99962.35
2023-03-26T00:37:09.351Z,99959.78
2023-03-26T00:39:50.027Z,99964.08
2023-03-26T00:42:21.007Z,99963.66
2023-03-26T00:44:57.730Z,99958.55
2023-03-26T00:47:30.003Z,99955.71
2023-03-26T00:50:00.647Z,99955.59
2023-03-26T00:52:41.003Z,99953.75
2023-03-26T00:55:12.389Z,99952.60
2023-03-26T00:58:01.925Z,99945.77
2023-03-26T01:00:39.801Z,99945.19
2023-03-26T01:03:26.902Z,99939.96
2023-03-26T01:06:04.859Z,99932.05
2023-03-26T01:08:52.888Z,99928.48
2023-03-26T01:11:44.159Z,99921.98
2023-03-26T01:14:19.002Z,99912.50
2023-03-26T01:16:53.551Z,99907.64
2023-03-26T01:19:30.725Z,99901.74
2023-03-26T01:22:05.178Z,99901.98
2023-03-26T01:24:38.694Z,99898.08
2023-03-26T01:27:38.996Z,99897.06
2023-03-26T01:30:26.584Z,99898.98
2023-03-26T01:33:13.952Z,99896.83
2023-03-26T01:36:10.451Z,99887.52
2023-03-26T01:38:48.315Z,99889.20
2023-03-26T01:41:33.172Z,99882.45
2023-03-26T01:44:12.207Z,99878.33
2023-03-26T01:46:44.008Z,99872.60
2023-03-26T01:49:35.030Z,99869.29
2023-03-26T01:52:14.036Z,99862.80
2023-03-26T01:54:46.755Z,99855.21
2023-03-26T01:57:28.548Z,99850.33
2023-03-26T02:00:07.162Z,99849.79
2023-03-26T02:02:59.059Z,99844.51
2023-03-26T02:05:34.151Z,99840.05
2023-03-26T02:08:12.024Z,99838.94
2023-03-26T02:10:59.203Z,99831.91
2023-03-26T02:13:32.271Z,99824.66
2023-03-26T02:16:11.702Z,99821.46
2023-03-26T02:19:02.616Z,99816.30
2023-03-26T02:21:42.525Z,99808.38
2023-03-26T02:24:16.299Z,99802.45
2023-03-26T02:26:50.048Z,99798.23
2023-03-26T02:29:23.733Z,99794.46
2023-03-26T02:32:02.339Z,99787.71
2023-03-26T02:34:36.887Z,99786.39
2023-03-26T02:37:07.961Z,99780.66
2023-03-26T02:39:37.837Z,99776.98
2023-03-26T02:42:16.471Z,99772.43
2023-03-26T02:44:51.164Z,99767.81
2023-03-26T02:47:43.300Z,99760.70
2023-03-26T02:50:37.211Z,99755.65
2023-03-26T02:53:43.063Z,99750.32
2023-03-26T02:56:45.824Z,99751.46
2023-03-26T02:59:27.132Z,99745.98
2023-03-26T03:02:16.716Z,99742.33
2023-03-26T03:04:47.734Z,99735.44
2023-03-26T03:07:20.548Z,99734.20
2023-03-26T03:09:51.490Z,99727.16
2023-03-26T03:12:41.105Z,99720.31
2023-03-26T03:15:15.365Z,99715.39
2023-03-26T03:17:56.168Z,99704.73
2023-03-26T03:20:36.287Z,99703.25
2023-03-26T03:23:09.528Z,99699.75
2023-03-26T03:25:52.724Z,99697.45
2023-03-26T03:28:33.475Z,99695.09
2023-03-26T03:31:18.408Z,99694.13
2023-03-26T03:33:51.719Z,99691.45
2023-03-26T03:36:42.491Z,99687.52
2023-03-26T03:39:22.948Z,99687.13
2023-03-26T03:41:56.480Z,99686.98
2023-03-26T03:44:47.378Z,99687.64
2023-03-26T03:47:44.793Z,99680.02
2023-03-26T03:50:19.111Z,99674.84
2023-03-26T03:53:01.259Z,99673.50
2023-03-26T03:55:32.191Z,99665.86
2023-03-26T03:58:03.842Z,99661.52
2023-03-26T04:00:41.755Z,99657.17
2023-03-26T04:03:39.374Z,99649.00
2023-03-26T04:06:14.392Z,99642.74
2023-03-26T04:08:45.297Z,99641.45
2023-03-26T04:11:26.017Z,99641.30
2023-03-26T04:14:25.836Z,99633.30
2023-03-26T04:17:26.915Z,99626.05
2023-03-26T04:20:10.666Z,99617.31
2023-03-26T04:22:56.331Z,99613.13
2023-03-26T04:25:30.567Z,99601.72
2023-03-26T04:28:31.453Z,99592.34
2023-03-26T04:31:24.442Z,99585.36
2023-03-26T04:34:24.440Z,99581.20
2023-03-26T04:37:27.691Z,99566.67
2023-03-26T04:40:21.143Z,99569.92
2023-03-26T04:43:13.103Z,99567.36
2023-03-26T04:46:12.312Z,99561.61
2023-03-26T04:49:02.094Z,99558.23
2023-03-26T04:51:39.497Z,99551.38
2023-03-26T04:54:21.719Z,99544.82
2023-03-26T04:57:02.986Z,99533.05
2023-03-26T04:59:45.665Z,99531.79
2023-03-26T05:02:37.579Z,99528.48
2023-03-26T05:05:09.551Z,99528.11
2023-03-26T05:07:43.405Z,99525.95
2023-03-26T05:10:17.157Z,99526.13
2023-03-26T05:12:54.854Z,99519.29
2023-03-26T05:15:36.841Z,99515.25
2023-03-26T05:18:33.435Z,99505.00
2023-03-26T05:21:14.853Z,99498.33
2023-03-26T05:23:48.046Z,99489.95
2023-03-26T05:26:27.425Z,99488.94
2023-03-26T05:28:58.318Z,99485.99
2023-03-26T05:31:49.754Z,99485.64
2023-03-26T05:34:26.338Z,99489.38
2023-03-26T05:36:57.572Z,99481.78
2023-03-26T05:40:04.341Z,99480.20
2023-03-26T05:42:57.037Z,99476.70
2023-03-26T05:45:49.912Z,99467.31
2023-03-26T05:48:26.725Z,99459.25
2023-03-26T05:50:59.422Z,99456.19
2023-03-26T05:53:32.881Z,99450.48
2023-03-26T05:56:22.366Z,99443.02
2023-03-26T05:59:16.851Z,99440.16
2023-03-26T06:02:13.109Z,99432.28
2023-03-26T06:04:54.414Z,99433.34
2023-03-26T06:08:00.853Z,99429.23
2023-03-26T06:10:41.019Z,99423.42
2023-03-26T06:13:17.402Z,99414.39
2023-03-26T06:15:49.338Z,99413.93
2023-03-26T06:18:40.601Z,99411.62
2023-03-26T06:21:46.198Z,99404.73
2023-03-26T06:24:25.443Z,99401.55
2023-03-26T06:27:25.303Z,99392.45
2023-03-26T06:30:17.243Z,99386.33
2023-03-26T06:33:11.098Z,99381.71
2023-03-26T06:36:14.847Z,99374.02
2023-03-26T06:38:45.581Z,99371.88
2023-03-26T06:44:43.057Z,99369.94
2023-03-26T06:47:50.661Z,99367.37
2023-03-26T06:50:39.860Z,99360.71
2023-03-26T06:53:36.618Z,99353.92
2023-03-26T06:57:18.193Z,99346.61
2023-03-26T06:59:44.215Z,99339.02
2023-03-26T07:02:33.429Z,99345.23
2023-03-26T07:05:22.694Z,99339.16
2023-03-26T07:08:12.425Z,99335.30
2023-03-26T07:11:01.668Z,99336.92
2023-03-26T07:13:56.366Z,99333.14
2023-03-26T07:16:45.814Z,99331.23
2023-03-26T07:19:45.353Z,99324.79
2023-03-26T07:22:28.288Z,99324.10
2023-03-26T07:25:17.913Z,99315.44
2023-03-26T07:28:14.386Z,99310.63
2023-03-26T07:31:16.818Z,99299.50
2023-03-26T07:34:32.580Z,99294.59
2023-03-26T07:37:34.197Z,99297.79
2023-03-26T07:40:45.774Z,99299.69
2023-03-26T07:44:08.948Z,99292.69
2023-03-26T07:47:04.746Z,99292.21
2023-03-26T07:49:50.158Z,99287.78
2023-03-26T07:52:29.403Z,99282.22
2023-03-26T07:55:13.492Z,99282.31
2023-03-26T07:58:23.709Z,99278.79
2023-03-26T08:01:39.227Z,99280.45
2023-03-26T08:04:40.641Z,99277.76
2023-03-26T08:07:41.327Z,99281.06
2023-03-26T08:11:00.120Z,99280.30
2023-03-26T08:13:45.581Z,99286.62
2023-03-26T08:16:32.581Z,99288.48
2023-03-26T08:19:34.202Z,99293.52
2023-03-26T08:22:20.751Z,99294.77
2023-03-26T08:25:29.707Z,99306.11
2023-03-26T08:28:29.165Z,99313.00
2023-03-26T08:31:25.497Z,99311.48
2023-03-26T08:34:16.562Z,99326.13
2023-03-26T08:37:07.873Z,99323.08
2023-03-26T08:39:58.842Z,99318.09
2023-03-26T08:43:10.564Z,99314.65
2023-03-26T08:46:26.544Z,99307.88
2023-03-26T08:49:16.947Z,99303.52
2023-03-26T08:52:35.696Z,99311.80
2023-03-26T08:55:41.943Z,99291.54
2023-03-26T08:58:59.201Z,99268.27
2023-03-26T09:02:18.338Z,99272.54
2023-03-26T09:05:27.442Z,99272.42
2023-03-26T09:08:54.505Z,99269.11
2023-03-26T09:12:13.102Z,99274.41
2023-03-26T09:15:27.508Z,99266.73
2023-03-26T09:18:45.937Z,99253.97
2023-03-26T09:22:05.479Z,99257.07
2023-03-26T09:25:26.274Z,99249.86
2023-03-26T09:28:51.890Z,99241.74
2023-03-26T09:32:04.814Z,99230.82
2023-03-26T09:35:14.528Z,99216.05
2023-03-26T09:38:21.134Z,99208.23
2023-03-26T09:41:17.955Z,99206.23
2023-03-26T09:44:25.974Z,99205.09
2023-03-26T09:47:22.267Z,99206.73
2023-03-26T09:50:10.777Z,99201.20
2023-03-26T09:53:13.973Z,99192.16
2023-03-26T09:55:57.739Z,99196.48
2023-03-26T09:59:24.673Z,99194.39
2023-03-26T10:02:05.630Z,99190.31
2023-03-26T10:05:21.694Z,99188.61
2023-03-26T10:08:21.944Z,99178.82
2023-03-26T10:11:21.985Z,99173.00
2023-03-26T10:14:07.325Z,99168.78
2023-03-26T10:16:51.456Z,99166.84
2023-03-26T10:19:46.622Z,99168.34
2023-03-26T10:22:36.093Z,99157.21
2023-03-26T10:25:36.275Z,99158.38
2023-03-26T10:28:29.285Z,99155.63
2023-03-26T10:31:51.613Z,99151.58
2023-03-26T10:34:47.188Z,99160.15
2023-03-26T10:37:27.634Z,99167.11
2023-03-26T10:40:24.523Z,99162.46
2023-03-26T10:43:19.809Z,99171.13
2023-03-26T10:46:15.341Z,99174.18
2023-03-26T10:49:26.614Z,99163.46
2023-03-26T10:52:10.754Z,99156.15
2023-03-26T10:54:57.400Z,99158.48
2023-03-26T10:57:38.249Z,99166.79
2023-03-26T11:00:25.471Z,99167.41
2023-03-26T11:03:54.563Z,99171.80
2023-03-26T11:06:38.907Z,99167.84
2023-03-26T11:09:23.662Z,99161.52
2023-03-26T11:12:26.977Z,99160.48
2023-03-26T11:15:23.894Z,99163.55
2023-03-26T11:18:07.944Z,99158.52
2023-03-26T11:20:46.123Z,99159.27
2023-03-26T11:23:32.813Z,99158.46
2023-03-26T11:26:14.075Z,99151.51
2023-03-26T11:29:31.230Z,99141.52
2023-03-26T11:32:04.365Z,99144.96
2023-03-26T11:34:39.629Z,99147.08
2023-03-26T11:37:21.692Z,99144.08
2023-03-26T11:39:56.572Z,99144.28
2023-03-26T11:42:29.957Z,99137.85
2023-03-26T11:45:04.415Z,99130.20
2023-03-26T11:47:43.123Z,99124.52
2023-03-26T11:50:21.603Z,99123.06
2023-03-26T11:52:53.048Z,99126.52
2023-03-26T11:55:28.649Z,99124.11
2023-03-26T11:58:27.952Z,99125.23
2023-03-26T12:00:59.201Z,99125.08
2023-03-26T12:03:32.011Z,99125.11
2023-03-26T12:06:03.810Z,99126.20
2023-03-26T12:08:40.248Z,99126.30
2023-03-26T12:11:33.232Z,99129.81
2023-03-26T12:14:06.867Z,99138.25
2023-03-26T12:16:37.801Z,99151.71
2023-03-26T12:19:20.154Z,99161.23
2023-03-26T12:22:01.958Z,99152.77
2023-03-26T12:24:34.315Z,99157.89
2023-03-26T12:27:28.371Z,99150.64
2023-03-26T12:30:10.428Z,99149.73
2023-03-26T12:32:46.834Z,99147.17
2023-03-26T12:35:25.772Z,99145.38
2023-03-26T12:37:58.749Z,99142.90
2023-03-26T12:40:34.383Z,99139.44
2023-03-26T12:44:54.712Z,99136.84
2023-03-26T12:47:54.992Z,99134.16
2023-03-26T12:48:55.122Z,99132.72
2023-03-26T12:51:40.515Z,99127.96
2023-03-26T12:54:23.847Z,99123.24
2023-03-26T12:57:13.400Z,99123.23
2023-03-26T12:59:57.201Z,99117.75
2023-03-26T13:02:50.655Z,99116.55
2023-03-26T13:05:43.289Z,99119.29
2023-03-26T13:08:35.070Z,99115.11
2023-03-26T13:11:18.596Z,99105.55
2023-03-26T13:14:06.384Z,99103.14
2023-03-26T13:16:55.363Z,99100.59
2023-03-26T13:19:53.990Z,99101.88
2023-03-26T13:22:48.345Z,99100.31
2023-03-26T13:25:33.294Z,99102.36
2023-03-26T13:28:20.196Z,99099.36
2023-03-26T13:31:01.473Z,99098.08
2023-03-26T13:33:43.951Z,99094.89
2023-03-26T13:36:23.826Z,99090.35
2023-03-26T13:39:13.074Z,99084.17
2023-03-26T13:42:00.994Z,99077.68
2023-03-26T13:44:45.330Z,99075.12
2023-03-26T13:47:19.765Z,99071.78
2023-03-26T13:49:56.360Z,99065.24
2023-03-26T13:52:36.372Z,99064.65
2023-03-26T13:55:21.041Z,99063.81
2023-03-26T13:57:57.099Z,99065.52
2023-03-26T14:00:32.698Z,99063.33
2023-03-26T14:03:35.666Z,99056.22
2023-03-26T14:06:14.532Z,99055.69
2023-03-26T14:08:49.185Z,99042.23
2023-03-26T14:11:32.915Z,99039.03
2023-03-26T14:14:11.272Z,99043.23
2023-03-26T14:16:48.103Z,99038.40
2023-03-26T14:19:43.147Z,99034.59
2023-03-26T14:22:27.293Z,99031.73
2023-03-26T14:25:15.019Z,99031.92
2023-03-26T14:28:02.764Z,99026.89
2023-03-26T14:30:59.198Z,99020.94
2023-03-26T14:34:02.389Z,99016.99
2023-03-26T14:36:56.857Z,99012.41
2023-03-26T14:39:50.939Z,99010.70
2023-03-26T14:42:35.049Z,99008.68
2023-03-26T14:45:39.166Z,99007.76
2023-03-26T14:48:39.212Z,99005.68
2023-03-26T14:51:20.617Z,99011.64
2023-03-26T14:53:55.859Z,99012.27
2023-03-26T14:56:44.800Z,99015.42
2023-03-26T15:00:15.862Z,99016.63
2023-03-26T15:03:19.387Z,99018.84
2023-03-26T15:06:21.211Z,99025.55
2023-03-26T15:09:30.303Z,99025.77
2023-03-26T15:12:36.059Z,99035.63
2023-03-26T15:15:31.920Z,99040.73
2023-03-26T15:18:44.538Z,99039.66
2023-03-26T15:21:44.388Z,99046.72
2023-03-26T15:24:53.366Z,99045.46
2023-03-26T15:27:58.522Z,99049.09
2023-03-26T15:31:00.874Z,99054.56
2023-03-26T15:33:57.172Z,99068.23
2023-03-26T15:37:17.687Z,99075.84
2023-03-26T15:40:20.928Z,99075.07
2023-03-26T15:43:10.432Z,99080.08
2023-03-26T15:45:44.961Z,99078.06
2023-03-26T15:48:44.709Z,99082.32
2023-03-26T15:51:47.002Z,99081.77
2023-03-26T15:54:33.839Z,99081.54
2023-03-26T15:57:17.106Z,99079.52
2023-03-26T16:00:02.608Z,99083.91
2023-03-26T16:02:53.793Z,99089.11
2023-03-26T16:05:30.079Z,99096.31
2023-03-26T16:08:15.797Z,99101.44
2023-03-26T16:10:52.917Z,99110.23
2023-03-26T16:13:50.815Z,99113.39
2023-03-26T16:16:26.085Z,99123.08
2023-03-26T16:19:49.134Z,99127.21
2023-03-26T16:22:43.432Z,99129.34
2023-03-26T16:25:34.155Z,99132.55
2023-03-26T16:28:22.615Z,99132.77
2023-03-26T16:31:37.554Z,99147.58
2023-03-26T16:34:31.458Z,99150.17
2023-03-26T16:37:08.923Z,99154.48
2023-03-26T16:39:45.151Z,99158.91
2023-03-26T16:42:40.582Z,99162.23
2023-03-26T16:45:22.801Z,99161.49
2023-03-26T16:48:03.132Z,99160.17
2023-03-26T16:50:48.655Z,99162.33
2023-03-26T16:53:30.480Z,99168.58
2023-03-26T16:56:26.271Z,99172.44
2023-03-26T16:59:01.876Z,99167.20
2023-03-26T17:01:48.367Z,99167.35
2023-03-26T17:04:28.451Z,99169.88
2023-03-26T17:07:17.423Z,99170.64
2023-03-26T17:10:01.015Z,99168.80
2023-03-26T17:12:41.586Z,99175.42
2023-03-26T17:15:32.173Z,99173.64
2023-03-26T17:18:22.937Z,99173.21
2023-03-26T17:21:03.942Z,99173.06
2023-03-26T17:23:58.239Z,99171.52
2023-03-26T17:26:41.271Z,99171.46
2023-03-26T17:29:31.520Z,99178.50
2023-03-26T17:32:09.292Z,99182.11
2023-03-26T17:35:02.186Z,99184.73
2023-03-26T17:37:48.607Z,99184.45
2023-03-26T17:40:53.078Z,99183.08
2023-03-26T17:43:47.130Z,99183.65
2023-03-26T17:46:33.125Z,99180.88
2023-03-26T17:49:19.636Z,99177.56
2023-03-26T17:51:58.418Z,99176.23
2023-03-26T17:54:35.187Z,99174.77
2023-03-26T17:57:13.461Z,99169.56
2023-03-26T17:59:46.289Z,99169.67
2023-03-26T18:02:21.773Z,99173.16
2023-03-26T18:04:55.667Z,99174.05
2023-03-26T18:08:02.054Z,99174.91
2023-03-26T18:11:03.025Z,99180.60
2023-03-26T18:13:57.428Z,99180.84
2023-03-26T18:16:29.695Z,99177.98
2023-03-26T18:19:19.406Z,99186.50
2023-03-26T18:22:08.019Z,99184.20
2023-03-26T18:24:45.429Z,99187.05
2023-03-26T18:27:22.175Z,99186.23
2023-03-26T18:30:14.937Z,99188.83
2023-03-26T18:33:05.892Z,99188.08
2023-03-26T18:35:59.368Z,99195.88
2023-03-26T18:38:42.436Z,99198.47
2023-03-26T18:41:31.603Z,99201.61
2023-03-26T18:44:06.658Z,99199.49
2023-03-26T18:46:38.117Z,99198.08
2023-03-26T18:49:12.865Z,99200.27
2023-03-26T18:51:56.842Z,99197.91
2023-03-26T18:54:39.125Z,99192.38
2023-03-26T18:57:21.521Z,99190.55
2023-03-26T18:59:57.062Z,99183.64
2023-03-26T19:02:28.260Z,99179.73
2023-03-26T19:05:09.344Z,99174.80
2023-03-26T19:07:41.246Z,99169.84
2023-03-26T19:10:21.286Z,99170.15
2023-03-26T19:13:01.380Z,99166.05
2023-03-26T19:15:44.791Z,99165.27
2023-03-26T19:18:23.173Z,99169.03
2023-03-26T19:20:59.632Z,99168.77
2023-03-26T19:23:34.564Z,99160.82
2023-03-26T19:26:07.742Z,99162.71
2023-03-26T19:28:41.494Z,99163.76
2023-03-26T19:31:26.081Z,99163.13
2023-03-26T19:34:03.129Z,99160.70
2023-03-26T19:36:59.577Z,99166.71
2023-03-26T19:39:44.535Z,99162.79
2023-03-26T19:42:19.529Z,99166.95
2023-03-26T19:44:51.373Z,99168.12
2023-03-26T19:47:52.204Z,99174.54
2023-03-26T19:50:31.131Z,99176.10
2023-03-26T19:53:32.557Z,99174.98
2023-03-26T19:56:13.505Z,99176.91
2023-03-26T19:58:45.000Z,99179.44
2023-03-26T20:01:19.750Z,99178.80
2023-03-26T20:03:57.862Z,99182.34
2023-03-26T20:06:42.676Z,99185.01
2023-03-26T20:09:17.505Z,99188.21
2023-03-26T20:11:59.309Z,99185.44
2023-03-26T20:14:32.783Z,99185.83
2023-03-26T20:17:11.101Z,99186.23
2023-03-26T20:19:41.931Z,99186.66
2023-03-26T20:22:20.118Z,99191.20
2023-03-26T20:24:54.946Z,99196.83
2023-03-26T20:27:27.571Z,99199.63
2023-03-26T20:30:05.930Z,99200.96
2023-03-26T20:33:12.402Z,99209.17
2023-03-26T20:35:50.043Z,99210.70
2023-03-26T20:38:39.189Z,99212.55
2023-03-26T20:41:27.218Z,99215.55
2023-03-26T20:44:15.682Z,99221.19
2023-03-26T20:47:00.596Z,99221.86
2023-03-26T20:49:38.049Z,99220.98
2023-03-26T20:52:15.662Z,99224.84
2023-03-26T20:55:01.714Z,99224.23
2023-03-26T20:57:55.411Z,99224.41
2023-03-26T21:00:28.420Z,99227.00
2023-03-26T21:03:07.389Z,99226.33
2023-03-26T21:05:48.859Z,99229.48
2023-03-26T21:08:25.751Z,99234.56
2023-03-26T21:11:03.665Z,99236.04
2023-03-26T21:13:41.120Z,99239.35
2023-03-26T21:16:24.082Z,99239.22
2023-03-26T21:18:55.681Z,99242.93
2023-03-26T21:21:50.789Z,99247.72
2023-03-26T21:24:47.051Z,99247.95
2023-03-26T21:27:26.530Z,99251.75
2023-03-26T21:30:00.030Z,99257.08
2023-03-26T21:32:32.408Z,99258.23
2023-03-26T21:35:06.928Z,99262.83
2023-03-26T21:37:38.359Z,99262.95
2023-03-26T21:40:14.879Z,99264.92
2023-03-26T21:42:51.226Z,99268.70
2023-03-26T21:45:23.833Z,99270.75
2023-03-26T21:48:03.381Z,99270.77
2023-03-26T21:50:35.467Z,99270.49
2023-03-26T21:53:15.501Z,99269.66
2023-03-26T21:56:06.261Z,99278.14
2023-03-26T21:58:48.078Z,99281.98
2023-03-26T22:01:37.107Z,99286.97
2023-03-26T22:04:18.012Z,99289.13
2023-03-26T22:07:04.356Z,99293.88
2023-03-26T22:09:38.740Z,99298.56
2023-03-26T22:12:25.653Z,99303.12
2023-03-26T22:14:57.059Z,99315.38
2023-03-26T22:17:32.762Z,99322.27
2023-03-26T22:20:07.654Z,99327.52
2023-03-26T22:22:49.762Z,99329.67
2023-03-26T22:25:21.679Z,99335.61
2023-03-26T22:27:53.977Z,99342.05
2023-03-26T22:30:28.470Z,99346.76
2023-03-26T22:32:59.808Z,99356.91
2023-03-26T22:35:36.075Z,99362.19
2023-03-26T22:38:09.687Z,99367.42
2023-03-26T22:40:43.510Z,99376.70
2023-03-26T22:43:24.552Z,99382.16
2023-03-26T22:45:55.719Z,99389.69
2023-03-26T22:48:28.990Z,99396.02
2023-03-26T22:51:04.896Z,99402.14
2023-03-26T22:53:46.343Z,99412.89
2023-03-26T22:56:21.914Z,99422.75
2023-03-26T22:58:54.920Z,99430.70
2023-03-26T23:01:36.214Z,99439.94
2023-03-26T23:04:09.418Z,99448.96
2023-03-26T23:06:44.076Z,99462.32
2023-03-26T23:09:17.220Z,99470.48
2023-03-26T23:11:59.199Z,99472.67
2023-03-26T23:14:32.398Z,99481.98
2023-03-26T23:17:24.097Z,99486.45
2023-03-26T23:19:57.915Z,99492.20
2023-03-26T23:22:28.881Z,99496.25
2023-03-26T23:24:59.649Z,99505.02
2023-03-26T23:27:34.171Z,99511.98
2023-03-26T23:30:11.872Z,99519.44
2023-03-26T23:32:50.294Z,99524.40
2023-03-26T23:35:30.934Z,99534.89
2023-03-26T23:38:02.317Z,99542.92
2023-03-26T23:40:44.009Z,99549.17
2023-03-26T23:43:17.569Z,99559.06
2023-03-26T23:45:49.096Z,99563.52
2023-03-26T23:48:25.472Z,99567.77
2023-03-26T23:51:03.378Z,99577.31
2023-03-26T23:53:55.631Z,99590.55
2023-03-26T23:56:27.825Z,99600.16
2023-03-26T23:59:06.165Z,99612.67
